Yokosuka Fwf, Japan

4:46 PM JST on August 02, 2014 (GMT +0900)
Totsukaku-Kashiodai (I709) Elev 112 ft | 35.42 °N, 139.56 °E | Change Station

Current weather conditions updated 10 seconds ago

Mostly Cloudy
Mostly Cloudy
88.2 °F
Feels Like 98 °F
N
10.7
Wind Variable Wind from SSE
Gusts 15.0 mph

Tomorrow is forecast to be Much Cooler than today.

Today
High -- | Low -- °F
--% Chance of Precip.
Yesterday
High -- | Low -- °F
Precip. -- in
4:50 AM 6:44 PM
Waxing Crescent, 33% visible
Pressure 29.77 in
Visibility 6.2 miles
Clouds Few 3000 ft
Mostly Cloudy 18000 ft
Heat Index 98 °F
Dew Point 74 °F
Humidity 64%
Rainfall 0.00 in
Snow Depth Not available.
UV 1 out of 12
Pollen Not available.
Air Quality Not available.
Flu Activity Not available.
METAR RJTT 020730Z 18014KT 9999 FEW030 BKN180 32/24 Q1008 NOSIG RMK 1CU030 5AC180 A2977

More Conditions Fewer Conditions

Pressure 29.77 in
Visibility 6.2 miles
Clouds Few 3000 ft
Mostly Cloudy 18000 ft
Heat Index 98 °F
Dew Point 74 °F
Humidity 64%
Rainfall 0.00 in
Snow Depth Not available.
UV 1 out of 12
Pollen Not available.
Air Quality Not available.
Flu Activity Not available.
METAR RJTT 020730Z 18014KT 9999 FEW030 BKN180 32/24 Q1008 NOSIG RMK 1CU030 5AC180 A2977

More Conditions Fewer Conditions

10-Day Weather Forecast

Almanac

Astronomy

Aug. 02, 2014 Rise Set
Actual Time 4:50 AM JST 6:44 PM JST
Civil Twilight 4:22 AM JST 7:12 PM JST
Nautical Twilight 3:48 AM JST 7:45 PM JST
Astronomical Twilight 3:12 AM JST 8:21 PM JST
Moon 10:20 AM JST 9:56 PM JST
Length of Visible Light 14h 49m
Length of Day
13h 53m
Tomorrow will be 1m 41s shorter.
Waxing Crescent, 33% of the Moon is Illuminated
Today
Waxing Crescent
Aug 3
First Quarter
Aug 10
Full
Aug 17
Last Quarter
Aug 25
New

Yesterday's Extremes

Country Highs Country Lows

Community

WunderPhotos

Upload Photos

1,739,843 photos uploaded!

Nearby

Snow Depth

Not available.

Earthquake Activity

City Distance Mag. Time & Date
No recent earthquake activity has been reported nearby.
Minimum magnitude displayed is 2.5.

Coastal Water Temperatures

Place Temperature
No Stations Reporting

Nearby Weather Stations

Station Location Temp. Heat Index Dew Point Humidity Wind Precip. Elev Updated Type
Totsukaku-Kashiodai, 横浜市 88.2 °F 98 °F 74 °F 64% SSE  at  10.7 mph 0.00 in / hr 112 ft 4:46 PM JST Rapid Fire
Green Town, Yokohama 89.2 °F 98 °F 74 °F 61% SSE  at  3.1 mph 0.00 in / hr 223 ft 4:45 PM JST Normal
Machida 91.7 °F 100 °F 72 °F 53% West  at  1.0 mph 0.00 in / hr 232 ft 4:43 PM JST Normal
Central of Kanagawa, Atsugi 89.4 °F 100 °F 75 °F 63% ESE  at  3.0 mph 0.00 in / hr 79 ft 4:45 PM JST Normal
Tamagawaen, Oota-city 92.3 °F 114 °F 82 °F 71% SSE  at  8.1 mph 0.00 in / hr 40 ft 4:46 PM JST Rapid Fire
ikuta,Japan, Kawasakishi 91.6 °F 101 °F 74 °F 56% SSE  at  3.0 mph 0.00 in / hr 285 ft 4:34 PM JST Normal

Show More Stations Show Fewer Stations